Time;durP1;ratioP1;P1;durP2;ratioP2;P2;SDS_P1;SDS_P2;PMS_P1;PMS_P2;Temp;Humidity;BMP_temperature;BMP_pressure;BME280_temperature;BME280_humidity;BME280_pressure;Samples;Min_cycle;Max_cycle;Signal;HPM_P1;HPM_P2
2023/10/20 09:33:11;;;;;;;13.88;7.72;;;;;;;13.38;99.45;93169.72;2083273;28;20561;-73
2023/10/20 09:34:15;;;;;;;11.07;7.30;;;;;;;13.53;99.58;93168.03;2082151;28;20616;-73
2023/10/20 09:35:16;;;;;;;11.82;6.65;;;;;;;13.68;98.15;93175.16;2081967;28;20193;-73
2023/10/20 09:36:19;;;;;;;13.10;7.57;;;;;;;13.81;97.46;93171.97;2082000;28;20216;-75
2023/10/20 09:37:23;;;;;;;17.38;7.65;;;;;;;13.99;95.63;93171.69;2078942;28;20238;-75
2023/10/20 09:38:26;;;;;;;13.98;7.25;;;;;;;14.18;93.24;93166.00;2081097;28;20541;-75
2023/10/20 09:39:38;;;;;;;12.32;5.95;;;;;;;14.31;93.81;93175.06;2080801;28;20607;-75
2023/10/20 09:40:41;;;;;;;11.20;6.78;;;;;;;14.28;94.58;93176.25;2081704;28;20227;-74
2023/10/20 09:41:48;;;;;;;16.90;8.43;;;;;;;14.42;94.62;93179.09;2082062;28;20188;-75
2023/10/20 09:42:52;;;;;;;19.05;8.05;;;;;;;14.34;94.84;93193.91;2083948;28;20189;-75
2023/10/20 09:44:05;;;;;;;12.90;7.75;;;;;;;14.30;95.54;93190.00;2081739;28;20322;-75
2023/10/20 09:47:01;;;;;;;11.05;7.20;;;;;;;14.23;96.13;93217.13;2085018;28;20551;-75
2023/10/20 09:50:07;;;;;;;11.20;6.45;;;;;;;14.28;94.94;93236.59;2084528;28;20556;-74
2023/10/20 09:51:09;;;;;;;12.35;6.63;;;;;;;14.30;95.57;93237.25;2076658;28;20217;-75
2023/10/20 09:54:03;;;;;;;10.00;6.20;;;;;;;14.23;94.36;93235.50;2084196;28;20677;-73
2023/10/20 09:55:06;;;;;;;10.50;5.97;;;;;;;14.21;94.06;93236.47;2083201;28;20199;-73
2023/10/20 09:58:09;;;;;;;9.25;6.00;;;;;;;14.39;93.87;93245.09;2083883;28;20554;-73
2023/10/20 09:59:20;;;;;;;10.20;6.25;;;;;;;14.47;93.73;93240.56;2082600;28;20203;-73
2023/10/20 10:02:34;;;;;;;8.70;5.90;;;;;;;14.47;94.11;93256.31;2082939;28;20561;-73
2023/10/20 10:05:36;;;;;;;9.43;5.32;;;;;;;14.59;93.50;93258.53;2084405;28;20556;-74
2023/10/20 10:06:38;;;;;;;7.35;5.30;;;;;;;14.67;92.06;93259.31;2080380;28;20827;-74
2023/10/20 10:09:52;;;;;;;7.90;5.40;;;;;;;14.80;91.68;93260.53;2084937;28;20542;-73
2023/10/20 10:10:53;;;;;;;10.05;5.40;;;;;;;14.88;91.71;93260.50;2076415;28;20829;-73
2023/10/20 10:11:55;;;;;;;9.25;5.40;;;;;;;14.96;91.65;93262.22;2072594;28;20258;-73
2023/10/20 10:12:59;;;;;;;8.43;4.32;;;;;;;15.02;91.54;93262.31;2072796;28;20198;-73
2023/10/20 10:14:02;;;;;;;14.02;5.78;;;;;;;15.18;90.73;93269.25;2073157;28;20193;-73
2023/10/20 10:15:07;;;;;;;8.43;4.93;;;;;;;15.26;90.01;93259.63;2076594;28;20272;-73
2023/10/20 10:16:13;;;;;;;7.65;4.97;;;;;;;15.48;89.60;93261.38;2087638;28;20221;-73
2023/10/20 10:17:19;;;;;;;7.85;4.78;;;;;;;15.74;87.83;93264.56;2086544;28;20690;-73
2023/10/20 10:18:24;;;;;;;11.48;5.28;;;;;;;15.84;88.39;93267.75;2073977;28;20201;-73
2023/10/20 10:19:27;;;;;;;10.18;5.70;;;;;;;15.32;88.97;93274.69;2072733;28;20832;-73
2023/10/20 10:20:29;;;;;;;8.90;5.00;;;;;;;15.47;88.73;93270.25;2071748;28;20262;-73
2023/10/20 10:21:30;;;;;;;8.02;5.28;;;;;;;15.67;89.04;93280.25;2072303;28;20819;-73
2023/10/20 10:22:32;;;;;;;7.72;4.70;;;;;;;15.59;90.42;93278.53;2071689;28;20251;-73
2023/10/20 10:35:43;;;;;;;7.47;3.15;;;;;;;15.05;96.12;93284.00;2082663;28;20556;-74
2023/10/20 10:38:43;;;;;;;9.57;2.95;;;;;;;15.08;96.89;93281.00;2085072;28;20559;-75
2023/10/20 10:41:30;;;;;;;7.32;3.25;;;;;;;15.18;96.96;93287.66;2083657;28;20552;-75
2023/10/20 10:42:42;;;;;;;6.93;3.75;;;;;;;15.27;96.66;93283.09;2082546;28;20204;-75
2023/10/20 10:43:44;;;;;;;4.70;3.30;;;;;;;15.43;95.40;93281.34;2082435;28;20201;-75
2023/10/20 10:44:46;;;;;;;6.72;3.20;;;;;;;15.62;94.57;93280.78;2082088;28;20268;-75
2023/10/20 10:45:52;;;;;;;6.90;3.65;;;;;;;15.64;94.89;93281.44;2079345;28;20228;-75
2023/10/20 10:46:55;;;;;;;7.30;3.17;;;;;;;15.40;95.85;93294.81;2074670;28;20189;-75
2023/10/20 10:50:15;;;;;;;6.72;3.10;;;;;;;15.50;97.39;93314.59;2083718;28;20556;-75
2023/10/20 10:51:18;;;;;;;3.92;2.00;;;;;;;15.47;96.52;93312.31;2078371;28;20243;-75
2023/10/20 10:54:34;;;;;;;3.50;2.00;;;;;;;15.50;93.01;93314.59;2085569;28;20545;-75
2023/10/20 10:55:37;;;;;;;4.38;2.30;;;;;;;15.62;95.02;93320.22;2079446;28;20208;-75
2023/10/20 10:56:41;;;;;;;4.25;2.08;;;;;;;15.65;92.64;93313.78;2071838;28;20194;-74
2023/10/20 11:00:13;;;;;;;2.65;1.25;;;;;;;15.67;89.57;93314.44;2083519;28;21003;-77
2023/10/20 11:01:15;;;;;;;1.73;0.82;;;;;;;15.72;87.01;93303.34;2082968;28;20216;-74
2023/10/20 11:04:34;;;;;;;1.80;0.90;;;;;;;15.57;86.39;93285.78;2092577;27;20541;-77
2023/10/20 11:05:37;;;;;;;2.15;0.77;;;;;;;15.67;86.08;93309.97;2084861;28;20647;-77
2023/10/20 11:09:19;;;;;;;1.38;0.60;;;;;;;15.66;85.32;93316.22;2091958;28;21095;-74
2023/10/20 11:12:48;;;;;;;2.05;0.70;;;;;;;15.61;86.51;93321.22;2092290;27;20545;-77
2023/10/20 11:21:11;;;;;;;2.17;0.90;;;;;;;15.37;87.88;93330.16;2094762;27;20556;-78
2023/10/20 11:24:10;;;;;;;1.40;0.60;;;;;;;15.40;86.08;93332.47;2084660;28;20552;-75
2023/10/20 11:25:19;;;;;;;1.10;0.60;;;;;;;15.41;86.44;93338.53;2074739;28;20707;-76
2023/10/20 11:28:21;;;;;;;1.30;0.60;;;;;;;15.44;86.48;93328.47;2083982;28;20587;-76
2023/10/20 11:29:25;;;;;;;1.10;0.60;;;;;;;15.53;86.48;93339.72;2079388;28;20201;-76
2023/10/20 11:30:31;;;;;;;3.50;0.60;;;;;;;15.60;86.96;93347.72;2078492;28;20210;-76
2023/10/20 11:31:34;;;;;;;1.33;0.63;;;;;;;15.64;86.34;93348.97;2069773;28;20204;-76
2023/10/20 11:32:36;;;;;;;1.48;0.70;;;;;;;15.72;86.20;93350.69;2071095;28;20805;-76
2023/10/20 11:33:37;;;;;;;1.50;0.60;;;;;;;15.67;85.80;93344.16;2069685;28;20194;-77
2023/10/20 11:34:40;;;;;;;1.25;0.60;;;;;;;15.63;85.35;93339.44;2066907;28;20195;-76
2023/10/20 11:35:42;;;;;;;1.30;0.57;;;;;;;15.63;86.13;93344.69;2071871;28;20638;-76
2023/10/20 11:36:43;;;;;;;3.25;0.60;;;;;;;15.62;85.82;93340.47;2068344;28;20205;-76
2023/10/20 11:37:46;;;;;;;1.95;0.70;;;;;;;15.58;86.27;93341.78;2073027;28;20329;-77
2023/10/20 11:38:47;;;;;;;1.35;0.70;;;;;;;15.65;86.45;93350.63;2073481;28;20283;-77
2023/10/20 11:39:49;;;;;;;1.67;0.70;;;;;;;15.67;85.18;93348.63;2071461;28;20197;-77
2023/10/20 11:40:50;;;;;;;1.40;0.70;;;;;;;15.75;84.89;93358.25;2072819;28;20225;-77
2023/10/20 11:41:56;;;;;;;2.28;0.80;;;;;;;15.75;84.65;93361.69;2069135;28;20194;-75
2023/10/20 11:42:57;;;;;;;1.20;0.70;;;;;;;15.76;83.98;93360.69;2071320;28;20217;-76
2023/10/20 11:43:59;;;;;;;1.38;0.70;;;;;;;15.77;83.98;93348.34;2069586;28;20250;-76
2023/10/20 11:45:01;;;;;;;1.60;0.70;;;;;;;15.78;83.75;93350.81;2070726;28;20190;-75
2023/10/20 11:46:05;;;;;;;1.20;0.60;;;;;;;15.82;84.09;93361.81;2067926;28;20252;-76
2023/10/20 11:47:07;;;;;;;1.30;0.70;;;;;;;15.87;84.41;93367.38;2072640;28;20190;-76
2023/10/20 11:48:09;;;;;;;1.33;0.60;;;;;;;15.83;83.89;93364.28;2074795;28;20209;-76
2023/10/20 11:49:11;;;;;;;2.28;0.73;;;;;;;15.95;83.74;93374.34;2071325;28;20193;-75
2023/10/20 11:50:15;;;;;;;1.92;0.68;;;;;;;15.95;83.34;93372.53;2068355;28;20193;-76
2023/10/20 11:51:17;;;;;;;1.20;0.60;;;;;;;15.98;82.86;93376.59;2071937;28;20794;-75
2023/10/20 11:52:18;;;;;;;1.52;0.60;;;;;;;16.02;83.59;93369.97;2069297;28;20233;-76
2023/10/20 11:53:19;;;;;;;1.40;0.57;;;;;;;16.01;83.18;93368.38;2071052;28;20235;-75
2023/10/20 11:54:21;;;;;;;1.10;0.60;;;;;;;15.95;83.65;93363.81;2072657;28;20208;-76
2023/10/20 11:55:23;;;;;;;1.35;0.65;;;;;;;15.94;83.64;93375.34;2071457;28;20621;-74
2023/10/20 11:56:25;;;;;;;1.20;0.70;;;;;;;15.88;84.05;93387.38;2072574;28;20200;-76
2023/10/20 11:57:31;;;;;;;1.50;0.65;;;;;;;15.87;84.09;93390.22;2067490;28;20433;-77
2023/10/20 11:58:33;;;;;;;1.20;0.50;;;;;;;15.82;83.74;93393.38;2064959;28;20392;-77
2023/10/20 11:59:35;;;;;;;2.00;1.35;;;;;;;15.79;84.51;93386.63;2066218;28;20260;-78
2023/10/20 12:02:32;;;;;;;5.97;1.15;;;;;;;15.75;84.89;93377.47;2083809;28;20548;-75
2023/10/20 12:03:33;;;;;;;1.20;0.60;;;;;;;15.75;84.81;93382.72;2079420;28;20200;-75
2023/10/20 12:04:35;;;;;;;2.17;0.77;;;;;;;15.80;84.87;93385.63;2080059;28;20256;-74
2023/10/20 12:05:37;;;;;;;1.10;0.60;;;;;;;15.80;84.54;93390.09;2078348;28;20201;-75
2023/10/20 12:06:39;;;;;;;3.05;0.60;;;;;;;15.83;84.88;93390.56;2075982;28;20193;-75
2023/10/20 12:07:40;;;;;;;1.50;0.60;;;;;;;15.91;84.22;93394.94;2071108;28;20288;-76
2023/10/20 12:08:42;;;;;;;1.20;0.68;;;;;;;16.10;84.56;93398.00;2068208;28;20198;-75
2023/10/20 12:09:43;;;;;;;1.10;0.57;;;;;;;16.22;84.04;93395.75;2067564;28;20684;-76
2023/10/20 12:10:45;;;;;;;1.50;0.70;;;;;;;16.25;82.84;93398.00;2071890;28;20270;-65
2023/10/20 12:11:47;;;;;;;1.10;0.50;;;;;;;16.39;82.59;93388.47;2071999;28;20782;-65
2023/10/20 12:12:48;;;;;;;1.35;0.60;;;;;;;16.41;82.23;93400.47;2072469;28;20258;-65
2023/10/20 12:13:50;;;;;;;1.00;0.50;;;;;;;16.43;82.15;93401.09;2069863;28;20209;-75
2023/10/20 12:14:51;;;;;;;1.67;0.57;;;;;;;16.44;81.53;93405.38;2070432;28;20197;-74
2023/10/20 12:15:53;;;;;;;1.10;0.50;;;;;;;16.63;81.31;93395.25;2064382;28;20233;-74
2023/10/20 12:16:54;;;;;;;1.50;0.50;;;;;;;16.73;80.12;93400.22;2064290;28;20249;-74
2023/10/20 12:17:57;;;;;;;2.97;0.50;;;;;;;17.22;79.52;93404.03;2070909;28;20197;-75
2023/10/20 12:19:05;;;;;;;1.23;0.65;;;;;;;17.47;78.66;93399.16;2070341;28;20194;-74
2023/10/20 12:20:09;;;;;;;1.10;0.50;;;;;;;17.52;77.85;93402.06;2070308;28;20186;-74
2023/10/20 12:21:10;;;;;;;1.13;0.50;;;;;;;17.59;76.55;93400.28;2071254;28;20217;-75
2023/10/20 12:22:15;;;;;;;1.13;0.60;;;;;;;17.71;77.17;93407.66;2070741;28;20248;-74
2023/10/20 12:23:17;;;;;;;1.17;0.55;;;;;;;17.70;76.23;93413.94;2072162;28;20269;-73
2023/10/20 12:24:19;;;;;;;2.17;0.60;;;;;;;17.93;75.50;93417.22;2073897;28;20225;-72
2023/10/20 12:25:21;;;;;;;1.73;0.60;;;;;;;18.50;74.78;93421.59;2075282;28;20193;-70
2023/10/20 12:26:23;;;;;;;1.75;0.50;;;;;;;18.77;73.97;93420.72;2071534;28;20877;-71
2023/10/20 12:27:25;;;;;;;8.98;0.60;;;;;;;18.92;73.36;93417.94;2070396;28;20205;-72
2023/10/20 12:28:26;;;;;;;1.40;0.60;;;;;;;18.89;71.61;93418.34;2077863;28;20194;-70
2023/10/20 12:29:28;;;;;;;1.75;0.63;;;;;;;19.20;71.62;93400.34;2077715;28;20198;-72
2023/10/20 12:30:29;;;;;;;4.15;0.80;;;;;;;19.40;71.48;93401.19;2071734;28;20197;-72
2023/10/20 12:31:31;;;;;;;1.40;0.70;;;;;;;19.63;70.93;93413.22;2070935;28;20201;-72
2023/10/20 12:32:33;;;;;;;2.08;0.60;;;;;;;19.31;71.16;93417.44;2070160;28;20336;-72
2023/10/20 12:33:34;;;;;;;2.60;0.60;;;;;;;19.50;70.31;93427.25;2071913;28;20276;-72
2023/10/20 12:34:36;;;;;;;2.55;0.60;;;;;;;19.57;70.99;93419.31;2070946;28;20191;-72
2023/10/20 12:35:37;;;;;;;1.55;0.60;;;;;;;19.33;70.91;93400.34;2068875;28;20195;-72
2023/10/20 12:36:41;;;;;;;2.58;0.60;;;;;;;19.09;72.38;93407.81;2067681;28;20201;-72
2023/10/20 12:37:42;;;;;;;1.10;0.60;;;;;;;18.89;72.55;93405.13;2070658;28;20598;-72
2023/10/20 12:38:44;;;;;;;1.42;0.70;;;;;;;18.96;73.17;93412.25;2071561;28;20201;-72
2023/10/20 12:39:45;;;;;;;1.58;0.70;;;;;;;18.77;73.10;93411.97;2070384;28;20659;-72
2023/10/20 12:40:48;;;;;;;1.20;0.60;;;;;;;18.68;72.96;93411.34;2068649;28;20229;-71
2023/10/20 12:41:51;;;;;;;1.73;0.70;;;;;;;18.46;74.04;93410.59;2072341;28;20674;-72
2023/10/20 12:42:52;;;;;;;3.58;0.60;;;;;;;18.26;74.30;93419.25;2071149;28;20190;-72
2023/10/20 12:43:54;;;;;;;1.10;0.60;;;;;;;18.68;73.75;93415.81;2071458;28;20202;-72
2023/10/20 12:44:55;;;;;;;1.73;0.63;;;;;;;18.76;72.47;93415.63;2070988;28;20313;-72
2023/10/20 12:45:57;;;;;;;1.00;0.50;;;;;;;18.74;72.62;93418.47;2068919;28;20222;-72
2023/10/20 12:46:59;;;;;;;2.20;0.50;;;;;;;18.72;73.53;93420.50;2073031;28;20276;-72
2023/10/20 12:48:01;;;;;;;1.10;0.50;;;;;;;18.60;73.72;93422.88;2071331;28;20333;-71
2023/10/20 12:49:04;;;;;;;1.58;0.60;;;;;;;18.31;73.91;93429.25;2072898;28;20226;-72
2023/10/20 12:50:06;;;;;;;1.45;0.63;;;;;;;18.04;75.55;93423.78;2074809;28;20190;-72
2023/10/20 12:51:09;;;;;;;3.35;0.60;;;;;;;17.84;76.36;93428.91;2071521;28;20290;-72
2023/10/20 12:52:12;;;;;;;2.60;0.70;;;;;;;17.58;76.40;93430.28;2071116;28;20534;-72
2023/10/20 12:53:13;;;;;;;1.45;0.60;;;;;;;17.20;76.95;93425.28;2070078;28;20189;-72
2023/10/20 12:54:15;;;;;;;1.20;0.60;;;;;;;17.26;77.99;93427.16;2070643;28;20273;-72
2023/10/20 12:55:16;;;;;;;1.30;0.60;;;;;;;17.16;78.84;93433.78;2069189;28;20707;-72
2023/10/20 12:56:18;;;;;;;1.17;0.50;;;;;;;17.10;79.50;93433.50;2072591;28;20301;-72
2023/10/20 12:57:19;;;;;;;1.40;0.60;;;;;;;17.12;79.98;93439.41;2073159;28;20194;-73
2023/10/20 12:58:21;;;;;;;6.85;0.70;;;;;;;17.04;79.27;93439.53;2070905;28;20887;-71
2023/10/20 12:59:22;;;;;;;6.93;0.50;;;;;;;16.90;79.77;93438.53;2069565;28;20220;-72
2023/10/20 13:00:27;;;;;;;1.50;0.60;;;;;;;16.87;80.26;93453.91;2070079;28;20194;-73
2023/10/20 13:01:28;;;;;;;1.20;0.50;;;;;;;16.90;80.63;93450.88;2072585;28;20706;-74
2023/10/20 13:02:30;;;;;;;1.30;0.50;;;;;;;16.91;80.67;93444.63;2072767;28;20610;-73
2023/10/20 13:03:32;;;;;;;1.63;0.50;;;;;;;16.97;80.07;93443.91;2071130;28;20194;-72
2023/10/20 13:04:34;;;;;;;3.60;0.70;;;;;;;16.93;80.05;93445.28;2068248;28;20202;-73
2023/10/20 13:05:35;;;;;;;1.30;0.70;;;;;;;16.97;80.58;93451.81;2067909;28;20285;-73
2023/10/20 13:06:37;;;;;;;3.75;0.70;;;;;;;16.94;80.77;93449.56;2072849;28;20201;-73
2023/10/20 13:07:59;;;;;;;1.20;0.60;;;;;;;16.96;80.54;93440.47;2070550;28;20845;-72
2023/10/20 13:09:01;;;;;;;2.58;0.60;;;;;;;17.06;80.77;93432.22;2073452;28;20194;-75
2023/10/20 13:10:03;;;;;;;2.75;0.95;;;;;;;16.94;80.57;93444.28;2070326;28;20234;-75
2023/10/20 13:11:05;;;;;;;2.33;0.73;;;;;;;16.96;81.20;93437.81;2070490;28;20214;-76
2023/10/20 13:12:06;;;;;;;1.25;0.70;;;;;;;16.80;81.57;93443.28;2067075;28;20221;-75
2023/10/20 13:13:08;;;;;;;1.20;0.60;;;;;;;16.69;81.35;93446.38;2072073;28;20309;-76
2023/10/20 13:14:12;;;;;;;1.30;0.60;;;;;;;16.61;81.72;93444.69;2068237;28;20277;-75
2023/10/20 13:15:14;;;;;;;1.27;0.70;;;;;;;16.69;81.99;93449.81;2066828;28;20251;-76
2023/10/20 13:16:15;;;;;;;2.33;0.93;;;;;;;16.71;81.60;93453.09;2066208;28;20226;-76
2023/10/20 13:17:17;;;;;;;1.40;0.70;;;;;;;16.63;81.93;93464.56;2067035;28;20226;-76
2023/10/20 13:18:18;;;;;;;1.55;0.80;;;;;;;16.61;82.34;93471.00;2065272;28;20214;-75
2023/10/20 13:19:20;;;;;;;2.40;0.60;;;;;;;16.52;82.79;93461.56;2065452;28;20255;-76
2023/10/20 13:20:22;;;;;;;1.27;0.60;;;;;;;16.59;82.79;93465.09;2064470;28;20206;-75
2023/10/20 13:21:24;;;;;;;1.35;0.60;;;;;;;16.53;82.19;93465.81;2068327;28;20249;-76
2023/10/20 13:22:26;;;;;;;1.20;0.60;;;;;;;16.45;81.31;93461.47;2065128;28;20627;-75
2023/10/20 13:23:27;;;;;;;2.35;0.60;;;;;;;16.48;81.34;93469.00;2066637;28;20230;-76
2023/10/20 13:24:29;;;;;;;2.10;0.50;;;;;;;16.51;81.78;93465.22;2067093;28;20196;-73
2023/10/20 13:25:30;;;;;;;2.97;0.57;;;;;;;16.44;81.79;93459.84;2064853;28;20193;-72
2023/10/20 13:26:33;;;;;;;1.30;0.70;;;;;;;16.33;82.07;93471.66;2070388;28;20293;-73
2023/10/20 13:27:36;;;;;;;1.17;0.57;;;;;;;16.28;82.46;93477.44;2069124;28;20302;-72
2023/10/20 13:28:37;;;;;;;1.83;0.60;;;;;;;16.20;82.90;93464.38;2068090;28;20731;-73
2023/10/20 13:29:38;;;;;;;4.22;1.05;;;;;;;16.14;83.48;93465.91;2066626;28;20410;-73
2023/10/20 13:30:40;;;;;;;1.10;0.60;;;;;;;16.11;83.17;93460.19;2065226;28;20194;-73
2023/10/20 13:31:42;;;;;;;1.33;0.60;;;;;;;16.03;82.83;93461.09;2066766;28;20286;-72
2023/10/20 13:32:44;;;;;;;1.40;0.70;;;;;;;15.95;83.30;93461.19;2067352;28;20241;-73
2023/10/20 13:33:47;;;;;;;1.10;0.52;;;;;;;15.92;83.85;93459.72;2060380;28;20195;-72
2023/10/20 13:34:49;;;;;;;1.40;0.60;;;;;;;15.94;84.02;93459.53;2066644;28;20281;-72
2023/10/20 13:35:51;;;;;;;1.60;0.60;;;;;;;15.89;84.04;93465.31;2065473;28;20226;-73
2023/10/20 13:36:52;;;;;;;2.85;0.70;;;;;;;15.89;83.80;93475.84;2064444;28;20827;-72
2023/10/20 13:37:54;;;;;;;1.20;0.60;;;;;;;15.88;83.17;93462.88;2061997;28;20811;-72
2023/10/20 13:38:55;;;;;;;2.03;0.70;;;;;;;15.78;83.18;93453.41;2063246;28;20210;-73
2023/10/20 13:39:57;;;;;;;1.92;0.60;;;;;;;15.83;83.59;93451.09;2064331;28;20230;-73
2023/10/20 13:40:59;;;;;;;1.65;0.77;;;;;;;15.79;83.72;93446.31;2067745;28;20262;-74
2023/10/20 16:00:00;;;;;;;1.40;0.60;;;;;;;12.89;92.14;93726.63;2080827;28;20915;-66
2023/10/20 16:01:03;;;;;;;2.53;0.85;;;;;;;13.51;88.06;93720.44;2074273;28;20221;-67
2023/10/20 16:02:05;;;;;;;2.10;0.60;;;;;;;13.86;86.34;93721.22;2071468;28;20713;-66
2023/10/20 16:03:07;;;;;;;1.58;0.60;;;;;;;14.34;84.17;93734.59;2073107;28;20456;-66
2023/10/20 16:04:08;;;;;;;2.45;0.70;;;;;;;14.39;82.75;93741.16;2077323;28;20339;-67
2023/10/20 16:05:10;;;;;;;1.20;0.60;;;;;;;14.61;82.68;93742.31;2077322;28;20197;-67
2023/10/20 16:06:11;;;;;;;1.27;0.63;;;;;;;14.65;82.88;93739.25;2075126;28;20221;-67
2023/10/20 16:07:13;;;;;;;2.78;0.70;;;;;;;14.62;82.22;93750.03;2071959;28;20225;-66
2023/10/20 16:08:14;;;;;;;1.50;0.60;;;;;;;14.30;82.32;93746.41;2073758;28;20196;-66
